createdAt,value
2024-01-21T00:01:19.029Z,18.70
2024-01-21T00:03:45.815Z,18.58
2024-01-21T00:06:12.772Z,18.35
2024-01-21T00:08:39.597Z,18.33
2024-01-21T00:11:06.416Z,17.73
2024-01-21T00:13:33.053Z,17.30
2024-01-21T00:15:59.769Z,18.63
2024-01-21T00:18:26.482Z,18.23
2024-01-21T00:20:53.493Z,17.98
2024-01-21T00:23:21.182Z,18.98
2024-01-21T00:25:48.118Z,16.88
2024-01-21T00:28:15.001Z,18.02
2024-01-21T00:30:41.888Z,16.40
2024-01-21T00:33:08.580Z,16.33
2024-01-21T00:35:35.537Z,16.95
2024-01-21T00:38:02.290Z,18.40
2024-01-21T00:40:29.066Z,18.65
2024-01-21T00:43:00.288Z,19.58
2024-01-21T00:45:27.498Z,19.65
2024-01-21T00:47:54.321Z,18.35
2024-01-21T00:50:22.096Z,20.13
2024-01-21T00:52:48.858Z,17.50
2024-01-21T00:55:15.493Z,17.90
2024-01-21T00:57:42.207Z,18.27
2024-01-21T01:00:09.247Z,18.40
2024-01-21T01:02:36.053Z,18.02
2024-01-21T01:05:03.135Z,17.48
2024-01-21T01:07:29.808Z,18.58
2024-01-21T01:09:56.572Z,18.45
2024-01-21T01:12:23.284Z,18.48
2024-01-21T01:14:50.002Z,17.73
2024-01-21T01:17:16.791Z,19.38
2024-01-21T01:19:43.849Z,18.73
2024-01-21T01:22:13.570Z,19.25
2024-01-21T01:24:41.274Z,20.63
2024-01-21T01:27:08.202Z,20.10
2024-01-21T01:29:34.980Z,19.83
2024-01-21T01:32:01.569Z,19.00
2024-01-21T01:34:28.362Z,20.10
2024-01-21T01:36:55.147Z,18.75
2024-01-21T01:39:22.081Z,18.25
2024-01-21T01:41:48.773Z,18.30
2024-01-21T01:44:15.640Z,19.10
2024-01-21T01:46:42.549Z,18.83
2024-01-21T01:49:09.572Z,20.20
2024-01-21T01:51:37.904Z,18.80
2024-01-21T01:54:05.266Z,19.73
2024-01-21T01:56:31.988Z,18.00
2024-01-21T01:59:02.774Z,20.23
2024-01-21T02:01:30.274Z,18.48
2024-01-21T02:03:57.979Z,19.60
2024-01-21T02:06:24.945Z,17.75
2024-01-21T02:08:51.732Z,19.88
2024-01-21T02:11:18.477Z,19.98
2024-01-21T02:13:45.336Z,19.52
2024-01-21T02:16:12.373Z,17.80
2024-01-21T02:18:41.401Z,18.77
2024-01-21T02:21:08.120Z,19.60
2024-01-21T02:23:35.095Z,19.65
2024-01-21T02:26:01.869Z,18.08
2024-01-21T02:28:28.669Z,18.40
2024-01-21T02:30:55.496Z,18.25
2024-01-21T02:33:22.330Z,17.70
2024-01-21T02:35:49.048Z,19.08
2024-01-21T02:38:15.855Z,17.58
2024-01-21T02:40:42.501Z,20.02
2024-01-21T02:43:09.295Z,17.73
2024-01-21T02:45:38.660Z,18.27
2024-01-21T02:48:05.776Z,19.23
2024-01-21T02:50:32.570Z,19.27
2024-01-21T02:52:59.356Z,18.20
2024-01-21T02:55:26.012Z,17.55
2024-01-21T02:57:52.670Z,18.15
2024-01-21T03:00:19.618Z,16.67
2024-01-21T03:02:46.367Z,17.52
2024-01-21T03:05:13.456Z,18.85
2024-01-21T03:07:40.199Z,17.27
2024-01-21T03:10:07.154Z,18.20
2024-01-21T03:12:34.102Z,19.00
2024-01-21T03:15:00.763Z,17.10
2024-01-21T03:17:29.655Z,16.95
2024-01-21T03:19:56.489Z,18.15
2024-01-21T03:22:23.294Z,19.05
2024-01-21T03:24:50.083Z,17.67
2024-01-21T03:27:16.912Z,16.33
2024-01-21T03:29:43.646Z,19.00
2024-01-21T03:32:10.337Z,16.90
2024-01-21T03:34:42.996Z,17.60
2024-01-21T03:37:10.393Z,16.67
2024-01-21T03:39:37.300Z,17.30
2024-01-21T03:42:04.478Z,18.23
2024-01-21T03:44:31.211Z,18.20
2024-01-21T03:46:57.838Z,17.35
2024-01-21T03:49:25.411Z,17.10
2024-01-21T03:51:52.443Z,16.83
2024-01-21T03:54:19.448Z,16.48
2024-01-21T03:56:46.569Z,16.20
2024-01-21T03:59:13.613Z,16.35
2024-01-21T04:01:43.762Z,17.58
2024-01-21T04:04:11.646Z,18.08
2024-01-21T04:06:42.107Z,17.98
2024-01-21T04:09:09.714Z,17.00
2024-01-21T04:11:36.645Z,18.23
2024-01-21T04:14:03.528Z,17.00
2024-01-21T04:16:30.172Z,17.30
2024-01-21T04:18:57.095Z,16.33
2024-01-21T04:21:23.912Z,17.25
2024-01-21T04:23:51.071Z,16.85
2024-01-21T04:26:17.916Z,17.75
2024-01-21T04:28:44.747Z,16.77
2024-01-21T04:31:11.917Z,17.37
2024-01-21T04:33:38.775Z,16.75
2024-01-21T04:36:05.896Z,15.80
2024-01-21T04:38:32.734Z,17.27
2024-01-21T04:41:00.288Z,18.13
2024-01-21T04:43:27.155Z,15.50
2024-01-21T04:45:54.117Z,16.45
2024-01-21T04:48:20.930Z,15.88
2024-01-21T04:50:47.869Z,15.98
2024-01-21T04:53:14.721Z,14.65
2024-01-21T04:55:41.552Z,15.50
2024-01-21T04:58:08.258Z,15.15
2024-01-21T05:00:34.993Z,15.20
2024-01-21T05:03:01.692Z,14.63
2024-01-21T05:05:28.374Z,15.88
2024-01-21T05:07:55.236Z,14.75
2024-01-21T05:10:22.038Z,15.20
2024-01-21T05:12:49.134Z,16.40
2024-01-21T05:15:15.941Z,15.53
2024-01-21T05:17:42.929Z,15.38
2024-01-21T05:20:10.571Z,15.10
2024-01-21T05:22:37.263Z,15.93
2024-01-21T05:25:04.821Z,15.30
2024-01-21T05:27:32.737Z,15.83
2024-01-21T05:29:59.449Z,15.73
2024-01-21T05:32:26.704Z,14.80
2024-01-21T05:34:53.528Z,14.75
2024-01-21T05:37:20.327Z,15.97
2024-01-21T05:39:47.332Z,16.50
2024-01-21T05:42:14.172Z,15.48
2024-01-21T05:44:41.001Z,15.07
2024-01-21T05:47:07.753Z,15.18
2024-01-21T05:49:34.853Z,16.03
2024-01-21T05:52:01.832Z,17.93
2024-01-21T05:54:28.902Z,15.30
2024-01-21T05:56:55.724Z,16.00
2024-01-21T05:59:22.501Z,15.70
2024-01-21T06:01:50.233Z,16.40
2024-01-21T06:04:17.520Z,16.90
2024-01-21T06:06:45.196Z,15.77
2024-01-21T06:09:12.664Z,15.57
2024-01-21T06:11:40.165Z,15.80
2024-01-21T06:14:06.822Z,16.20
2024-01-21T06:16:33.955Z,15.23
2024-01-21T06:19:01.252Z,16.08
2024-01-21T06:21:28.545Z,17.07
2024-01-21T06:23:55.481Z,15.43
2024-01-21T06:26:23.847Z,16.30
2024-01-21T06:28:51.058Z,16.87
2024-01-21T06:31:18.172Z,15.63
2024-01-21T06:33:45.198Z,15.40
2024-01-21T06:36:12.205Z,16.67
2024-01-21T06:38:41.873Z,25.57
2024-01-21T06:41:08.670Z,31.40
2024-01-21T06:43:35.321Z,27.90
2024-01-21T06:46:02.081Z,20.50
2024-01-21T06:48:29.630Z,17.60
2024-01-21T06:50:56.782Z,16.93
2024-01-21T06:53:23.723Z,14.97
2024-01-21T06:55:51.046Z,16.60
2024-01-21T06:58:17.894Z,15.90
2024-01-21T07:00:46.997Z,16.98
2024-01-21T07:03:14.044Z,16.63
2024-01-21T07:05:40.882Z,17.37
2024-01-21T07:08:08.267Z,15.70
2024-01-21T07:10:34.863Z,15.33
2024-01-21T07:13:01.392Z,16.97
2024-01-21T07:15:27.988Z,16.38
2024-01-21T07:17:54.747Z,15.30
2024-01-21T07:20:21.589Z,15.45
2024-01-21T07:22:48.228Z,15.27
2024-01-21T07:25:15.920Z,18.13
2024-01-21T07:27:44.063Z,17.25
2024-01-21T07:30:12.103Z,15.25
2024-01-21T07:32:39.944Z,16.37
2024-01-21T07:35:07.527Z,16.47
2024-01-21T07:37:34.153Z,16.58
2024-01-21T07:40:00.899Z,17.67
2024-01-21T07:42:28.089Z,16.80
2024-01-21T07:44:54.804Z,18.07
2024-01-21T07:47:21.362Z,18.33
2024-01-21T07:49:48.241Z,17.45
2024-01-21T07:52:17.693Z,18.75
2024-01-21T07:54:44.691Z,18.75
2024-01-21T07:57:11.497Z,15.77
2024-01-21T07:59:38.093Z,16.63
2024-01-21T08:02:04.816Z,16.67
2024-01-21T08:04:31.530Z,16.58
2024-01-21T08:06:58.171Z,15.77
2024-01-21T08:09:26.149Z,16.20
2024-01-21T08:11:52.852Z,16.25
2024-01-21T08:14:19.381Z,17.17
2024-01-21T08:16:45.928Z,17.48
2024-01-21T08:19:12.806Z,18.00
2024-01-21T08:21:39.422Z,17.42
2024-01-21T08:24:06.020Z,17.80
2024-01-21T08:26:32.535Z,18.92
2024-01-21T08:28:59.413Z,19.83
2024-01-21T08:31:26.273Z,18.70
2024-01-21T08:33:52.983Z,17.23
2024-01-21T08:36:19.694Z,14.50
2024-01-21T08:38:46.198Z,16.10
2024-01-21T08:41:12.806Z,14.05
2024-01-21T08:43:39.312Z,18.02
2024-01-21T08:46:08.374Z,17.58
2024-01-21T08:48:35.088Z,18.08
2024-01-21T08:51:01.753Z,20.58
2024-01-21T08:53:28.308Z,19.08
2024-01-21T08:55:55.037Z,18.23
2024-01-21T08:58:21.557Z,18.55
2024-01-21T09:00:48.289Z,18.83
2024-01-21T09:03:16.085Z,19.02
2024-01-21T09:05:42.944Z,18.42
2024-01-21T09:08:09.661Z,18.65
2024-01-21T09:10:36.228Z,18.25
2024-01-21T09:13:02.869Z,19.50
2024-01-21T09:15:29.614Z,17.38
2024-01-21T09:17:56.519Z,17.38
2024-01-21T09:20:23.089Z,19.52
2024-01-21T09:22:49.564Z,19.98
2024-01-21T09:25:16.150Z,17.95
2024-01-21T09:27:42.764Z,19.52
2024-01-21T09:30:10.369Z,17.50
2024-01-21T09:32:36.997Z,16.75
2024-01-21T09:35:03.732Z,17.02
2024-01-21T09:37:30.231Z,14.93
2024-01-21T09:39:56.889Z,13.30
2024-01-21T09:42:23.716Z,13.98
2024-01-21T09:44:50.396Z,14.43
2024-01-21T09:47:17.659Z,14.68
2024-01-21T09:49:45.452Z,13.50
2024-01-21T09:52:12.609Z,14.73
2024-01-21T09:54:39.220Z,13.02
2024-01-21T09:57:07.283Z,11.93
2024-01-21T09:59:33.909Z,12.20
2024-01-21T10:02:00.496Z,11.00
2024-01-21T10:04:28.277Z,11.50
2024-01-21T10:06:56.349Z,9.63
2024-01-21T10:09:23.569Z,9.57
2024-01-21T10:11:51.318Z,7.97
2024-01-21T10:14:17.830Z,9.35
2024-01-21T10:16:44.692Z,11.52
2024-01-21T10:19:17.907Z,9.57
2024-01-21T10:21:44.485Z,11.93
2024-01-21T10:24:11.769Z,11.52
2024-01-21T10:26:38.775Z,10.98
2024-01-21T10:29:05.280Z,10.02
2024-01-21T10:31:35.153Z,10.70
2024-01-21T10:34:03.480Z,9.68
2024-01-21T10:36:33.029Z,9.85
2024-01-21T10:38:59.788Z,9.75
2024-01-21T10:41:31.321Z,8.93
2024-01-21T10:43:58.931Z,8.27
2024-01-21T10:46:26.601Z,7.85
2024-01-21T10:48:57.393Z,8.15
2024-01-21T10:51:24.627Z,11.48
2024-01-21T10:53:52.743Z,11.68
2024-01-21T10:56:20.360Z,10.90
2024-01-21T10:58:48.629Z,12.95
2024-01-21T11:01:16.404Z,13.90
2024-01-21T11:03:44.819Z,12.80
2024-01-21T11:06:12.086Z,14.38
2024-01-21T11:08:43.208Z,12.63
2024-01-21T11:11:10.042Z,13.98
2024-01-21T11:13:56.198Z,14.50
2024-01-21T11:16:31.936Z,13.07
2024-01-21T11:18:59.478Z,13.80
2024-01-21T11:21:27.017Z,13.25
2024-01-21T11:24:04.455Z,12.98
2024-01-21T11:26:31.650Z,12.43
2024-01-21T11:29:02.269Z,12.75
2024-01-21T11:31:35.685Z,12.32
2024-01-21T11:34:20.698Z,12.95
2024-01-21T11:36:47.719Z,12.40
2024-01-21T11:39:15.860Z,12.95
2024-01-21T11:41:43.356Z,12.60
2024-01-21T11:44:10.518Z,12.60
2024-01-21T11:46:37.890Z,12.65
2024-01-21T11:49:04.708Z,12.32
2024-01-21T11:51:31.480Z,13.82
2024-01-21T11:53:58.088Z,14.15
2024-01-21T11:56:24.801Z,13.20
2024-01-21T11:58:51.588Z,12.40
2024-01-21T12:01:18.466Z,14.45
2024-01-21T12:03:48.281Z,14.02
2024-01-21T12:06:15.387Z,13.95
2024-01-21T12:08:44.456Z,13.32
2024-01-21T12:11:11.062Z,13.35
2024-01-21T12:13:39.127Z,12.68
2024-01-21T12:16:06.083Z,11.60
2024-01-21T12:18:32.859Z,12.45
2024-01-21T12:20:59.672Z,13.15
2024-01-21T12:23:26.437Z,12.38
2024-01-21T12:25:54.638Z,13.57
2024-01-21T12:28:21.357Z,12.65
2024-01-21T12:30:48.777Z,10.95
2024-01-21T12:33:15.971Z,12.13
2024-01-21T12:35:43.912Z,11.63
2024-01-21T12:38:10.852Z,12.45
2024-01-21T12:40:37.475Z,11.25
2024-01-21T12:43:04.538Z,11.52
2024-01-21T12:45:31.343Z,10.80
2024-01-21T12:47:57.977Z,11.63
2024-01-21T12:50:25.253Z,11.60
2024-01-21T12:52:51.966Z,10.15
2024-01-21T12:55:18.618Z,11.55
2024-01-21T12:57:45.367Z,10.13
2024-01-21T13:00:12.384Z,9.93
2024-01-21T13:02:40.082Z,9.52
2024-01-21T13:05:07.068Z,11.75
2024-01-21T13:07:34.111Z,10.15
2024-01-21T13:10:00.740Z,10.38
2024-01-21T13:12:28.920Z,10.52
2024-01-21T13:14:56.317Z,10.32
2024-01-21T13:17:22.846Z,10.55
2024-01-21T13:19:49.517Z,10.45
2024-01-21T13:22:16.363Z,10.40
2024-01-21T13:24:43.012Z,11.88
2024-01-21T13:27:13.128Z,10.77
2024-01-21T13:29:58.603Z,9.93
2024-01-21T13:32:25.258Z,11.13
2024-01-21T13:34:52.323Z,10.10
2024-01-21T13:39:46.579Z,11.25
2024-01-21T13:42:13.586Z,11.00
2024-01-21T13:44:40.328Z,9.88
2024-01-21T13:47:07.312Z,9.98
2024-01-21T13:49:34.045Z,12.05
2024-01-21T13:52:02.985Z,10.73
2024-01-21T13:54:29.966Z,10.50
2024-01-21T13:56:56.633Z,10.95
2024-01-21T13:59:23.229Z,10.43
2024-01-21T14:01:57.701Z,11.30
2024-01-21T14:04:31.905Z,11.07
2024-01-21T14:06:58.447Z,10.93
2024-01-21T14:09:25.081Z,11.43
2024-01-21T14:11:51.693Z,10.80
2024-01-21T14:14:18.401Z,10.65
2024-01-21T14:16:44.969Z,9.45
2024-01-21T14:19:11.706Z,10.43
2024-01-21T14:21:38.293Z,11.40
2024-01-21T14:24:07.234Z,11.50
2024-01-21T14:26:36.389Z,11.55
2024-01-21T14:29:04.065Z,10.80
2024-01-21T14:31:30.694Z,11.23
2024-01-21T14:33:57.625Z,9.98
2024-01-21T14:36:24.418Z,11.00
2024-01-21T14:38:51.181Z,11.13
2024-01-21T14:41:17.893Z,10.73
2024-01-21T14:43:44.712Z,10.63
2024-01-21T14:46:11.690Z,11.40
2024-01-21T14:48:38.626Z,11.90
2024-01-21T14:51:05.528Z,11.10
2024-01-21T14:53:32.728Z,10.73
2024-01-21T14:56:00.011Z,11.13
2024-01-21T14:58:26.574Z,11.27
2024-01-21T15:00:53.604Z,11.20
2024-01-21T15:03:20.567Z,10.85
2024-01-21T15:05:47.242Z,11.85
2024-01-21T15:08:14.311Z,10.95
2024-01-21T15:10:43.265Z,11.23
2024-01-21T15:13:14.846Z,9.85
2024-01-21T15:15:41.759Z,9.98
2024-01-21T15:18:12.314Z,10.23
2024-01-21T15:20:44.126Z,10.57
2024-01-21T15:23:10.893Z,10.50
2024-01-21T15:25:37.590Z,10.60
2024-01-21T15:28:04.553Z,10.77
2024-01-21T15:30:31.710Z,9.93
2024-01-21T15:32:59.031Z,11.20
2024-01-21T15:35:25.786Z,10.43
2024-01-21T15:37:52.558Z,10.18
2024-01-21T15:40:19.236Z,10.05
2024-01-21T15:42:45.998Z,10.65
2024-01-21T15:45:13.541Z,10.98
2024-01-21T15:47:40.571Z,10.73
2024-01-21T15:50:08.282Z,11.10
2024-01-21T15:52:35.620Z,10.57
2024-01-21T15:55:06.001Z,12.05
2024-01-21T15:57:32.748Z,9.88
2024-01-21T15:59:59.543Z,10.70
2024-01-21T16:02:26.415Z,10.07
2024-01-21T16:04:53.748Z,10.45
2024-01-21T16:07:23.600Z,11.90
2024-01-21T16:09:51.080Z,11.23
2024-01-21T16:12:19.074Z,12.38
2024-01-21T16:14:45.990Z,11.48
2024-01-21T16:17:12.977Z,12.15
2024-01-21T16:19:39.878Z,13.68
2024-01-21T16:22:07.400Z,14.98
2024-01-21T16:24:34.499Z,16.65
2024-01-21T16:27:01.433Z,15.38
2024-01-21T16:29:28.688Z,15.02
2024-01-21T16:31:55.807Z,16.70
2024-01-21T16:34:22.587Z,14.70
2024-01-21T16:36:49.477Z,13.38
2024-01-21T16:39:17.432Z,12.80
2024-01-21T16:41:44.313Z,13.40
2024-01-21T16:44:11.628Z,13.13
2024-01-21T16:46:38.569Z,13.57
2024-01-21T16:49:07.334Z,13.73
2024-01-21T16:51:39.726Z,12.77
2024-01-21T16:54:11.918Z,13.25
2024-01-21T16:56:39.147Z,13.43
2024-01-21T16:59:05.808Z,13.15
2024-01-21T17:01:35.032Z,13.07
2024-01-21T17:04:01.985Z,13.80
2024-01-21T17:06:28.778Z,12.82
2024-01-21T17:08:56.588Z,14.90
2024-01-21T17:11:25.255Z,14.73
2024-01-21T17:13:52.064Z,15.18
2024-01-21T17:16:18.860Z,15.23
2024-01-21T17:18:46.048Z,15.45
2024-01-21T17:21:13.132Z,15.13
2024-01-21T17:23:40.213Z,14.63
2024-01-21T17:26:07.349Z,18.00
2024-01-21T17:28:33.998Z,18.08
2024-01-21T17:31:00.765Z,20.73
2024-01-21T17:33:27.924Z,21.45
2024-01-21T17:35:54.952Z,19.23
2024-01-21T17:38:21.911Z,18.05
2024-01-21T17:40:48.635Z,19.30
2024-01-21T17:43:15.270Z,17.25
2024-01-21T17:45:42.241Z,17.58
2024-01-21T17:48:09.305Z,18.98
2024-01-21T17:50:36.409Z,18.52
2024-01-21T17:53:03.244Z,19.75
2024-01-21T17:55:30.645Z,17.52
2024-01-21T17:57:57.363Z,17.08
2024-01-21T18:00:24.238Z,17.90
2024-01-21T18:02:51.244Z,16.13
2024-01-21T18:05:18.569Z,17.02
2024-01-21T18:07:45.609Z,14.75
2024-01-21T18:10:12.338Z,16.23
2024-01-21T18:12:39.352Z,17.98
2024-01-21T18:15:06.403Z,17.00
2024-01-21T18:17:35.104Z,17.83
2024-01-21T18:20:03.037Z,16.90
2024-01-21T18:22:32.100Z,17.50
2024-01-21T18:24:58.896Z,16.67
2024-01-21T18:27:25.675Z,16.38
2024-01-21T18:29:52.761Z,17.65
2024-01-21T18:32:24.862Z,17.92
2024-01-21T18:34:52.854Z,15.77
2024-01-21T18:37:20.162Z,16.80
2024-01-21T18:39:47.225Z,17.30
2024-01-21T18:42:14.406Z,18.17
2024-01-21T18:44:41.338Z,17.63
2024-01-21T18:47:08.149Z,16.48
2024-01-21T18:49:35.578Z,17.63
2024-01-21T18:52:05.923Z,15.63
2024-01-21T18:54:36.272Z,17.02
2024-01-21T18:57:03.451Z,17.20
2024-01-21T18:59:30.369Z,16.20
2024-01-21T19:01:57.885Z,17.20
2024-01-21T19:04:29.716Z,17.23
2024-01-21T19:07:02.322Z,17.20
2024-01-21T19:09:30.430Z,14.75
2024-01-21T19:11:57.517Z,13.75
2024-01-21T19:14:24.369Z,14.07
2024-01-21T19:16:51.193Z,13.98
2024-01-21T19:19:18.270Z,13.45
2024-01-21T19:21:45.230Z,11.88
2024-01-21T19:24:12.109Z,12.68
2024-01-21T19:26:39.171Z,13.30
2024-01-21T19:29:07.429Z,14.30
2024-01-21T19:31:34.711Z,13.63
2024-01-21T19:34:02.382Z,13.20
2024-01-21T19:36:29.477Z,14.73
2024-01-21T19:38:56.435Z,12.55
2024-01-21T19:41:23.421Z,12.57
2024-01-21T19:43:50.254Z,15.70
2024-01-21T19:46:17.169Z,17.33
2024-01-21T19:48:44.493Z,15.55
2024-01-21T19:51:11.791Z,16.50
2024-01-21T19:53:38.898Z,14.82
2024-01-21T19:56:05.819Z,14.73
2024-01-21T19:58:32.673Z,14.90
2024-01-21T20:00:59.583Z,15.63
2024-01-21T20:03:26.681Z,14.52
2024-01-21T20:05:54.916Z,12.20
2024-01-21T20:08:21.727Z,12.35
2024-01-21T20:10:51.948Z,11.38
2024-01-21T20:13:19.505Z,11.50
2024-01-21T20:15:46.726Z,13.13
2024-01-21T20:18:13.708Z,14.15
2024-01-21T20:20:40.721Z,13.05
2024-01-21T20:23:08.140Z,12.50
2024-01-21T20:25:35.245Z,11.82
2024-01-21T20:28:02.207Z,13.27
2024-01-21T20:30:30.628Z,15.02
2024-01-21T20:32:57.984Z,13.45
2024-01-21T20:35:24.674Z,15.35
2024-01-21T20:37:52.152Z,13.43
2024-01-21T20:40:19.102Z,14.10
2024-01-21T20:42:45.766Z,13.10
2024-01-21T20:45:12.542Z,13.48
2024-01-21T20:47:39.496Z,12.20
2024-01-21T20:50:06.507Z,12.85
2024-01-21T20:52:33.213Z,12.60
2024-01-21T20:55:01.559Z,14.57
2024-01-21T20:57:29.031Z,14.13
2024-01-21T20:59:55.682Z,14.45
2024-01-21T21:02:22.474Z,15.13
2024-01-21T21:04:49.468Z,15.10
2024-01-21T21:07:16.411Z,16.48
2024-01-21T21:09:43.295Z,15.25
2024-01-21T21:12:10.048Z,17.55
2024-01-21T21:14:37.059Z,15.80
2024-01-21T21:17:03.976Z,15.48
2024-01-21T21:19:30.632Z,15.07
2024-01-21T21:21:58.093Z,19.45
2024-01-21T21:24:24.840Z,16.63
2024-01-21T21:26:51.736Z,16.65
2024-01-21T21:29:18.726Z,16.15
2024-01-21T21:31:45.500Z,15.25
2024-01-21T21:34:12.560Z,15.38
2024-01-21T21:36:39.424Z,15.20
2024-01-21T21:39:06.208Z,15.07
2024-01-21T21:41:33.978Z,15.00
2024-01-21T21:44:01.006Z,14.48
2024-01-21T21:46:27.950Z,15.68
2024-01-21T21:48:54.918Z,15.38
2024-01-21T21:51:22.325Z,14.38
2024-01-21T21:53:50.441Z,16.83
2024-01-21T21:56:18.507Z,15.52
2024-01-21T21:58:45.447Z,15.93
2024-01-21T22:01:12.763Z,15.77
2024-01-21T22:03:39.694Z,17.02
2024-01-21T22:06:08.222Z,16.65
2024-01-21T22:08:36.017Z,17.50
2024-01-21T22:11:03.519Z,16.33
2024-01-21T22:13:32.482Z,16.08
2024-01-21T22:15:59.393Z,18.13
2024-01-21T22:18:26.107Z,18.70
2024-01-21T22:20:53.036Z,18.48
2024-01-21T22:23:19.954Z,17.38
2024-01-21T22:25:46.639Z,17.35
2024-01-21T22:28:13.420Z,19.50
2024-01-21T22:30:40.107Z,16.92
2024-01-21T22:33:06.843Z,17.70
2024-01-21T22:35:33.738Z,16.90
2024-01-21T22:38:00.471Z,17.25
2024-01-21T22:40:27.232Z,17.60
2024-01-21T22:42:53.933Z,17.55
2024-01-21T22:45:20.710Z,17.95
2024-01-21T22:47:47.543Z,16.98
2024-01-21T22:50:14.989Z,18.27
2024-01-21T22:52:41.850Z,17.20
2024-01-21T22:55:09.652Z,18.70
2024-01-21T22:57:36.460Z,18.15
2024-01-21T23:00:06.231Z,16.38
2024-01-21T23:02:33.375Z,18.05
2024-01-21T23:05:01.952Z,17.92
2024-01-21T23:07:28.855Z,17.25
2024-01-21T23:09:55.740Z,15.20
2024-01-21T23:12:22.381Z,17.25
2024-01-21T23:14:49.093Z,15.27
2024-01-21T23:17:15.861Z,17.15
2024-01-21T23:19:43.769Z,16.58
2024-01-21T23:22:10.698Z,16.23
2024-01-21T23:24:37.470Z,18.02
2024-01-21T23:27:04.900Z,16.70
2024-01-21T23:29:31.820Z,16.73
2024-01-21T23:31:58.790Z,17.10
2024-01-21T23:34:25.821Z,16.65
2024-01-21T23:36:52.621Z,16.40
2024-01-21T23:39:21.775Z,17.15
2024-01-21T23:41:48.791Z,16.52
2024-01-21T23:44:15.510Z,14.95
2024-01-21T23:46:42.192Z,15.05
2024-01-21T23:49:09.072Z,14.07
2024-01-21T23:51:42.005Z,13.63
2024-01-21T23:54:08.739Z,13.50
2024-01-21T23:56:35.561Z,15.07
2024-01-21T23:59:02.524Z,14.43
